sensor_id;sensor_type;location;lat;lon;timestamp;P1;durP1;ratioP1;P2;durP2;ratioP2
23754;SDS011;12057;52.042;6.830;2023-04-06T00:03:31;29.15;;;10.50;;
23754;SDS011;12057;52.042;6.830;2023-04-06T00:08:32;26.65;;;12.23;;
23754;SDS011;12057;52.042;6.830;2023-04-06T00:13:33;30.35;;;10.65;;
23754;SDS011;12057;52.042;6.830;2023-04-06T00:18:34;32.58;;;10.98;;
23754;SDS011;12057;52.042;6.830;2023-04-06T00:23:35;26.67;;;11.13;;
23754;SDS011;12057;52.042;6.830;2023-04-06T00:28:36;30.83;;;8.93;;
23754;SDS011;12057;52.042;6.830;2023-04-06T00:33:38;32.60;;;10.13;;
23754;SDS011;12057;52.042;6.830;2023-04-06T00:38:38;27.42;;;10.77;;
23754;SDS011;12057;52.042;6.830;2023-04-06T00:43:39;33.08;;;9.63;;
23754;SDS011;12057;52.042;6.830;2023-04-06T00:48:40;33.38;;;10.70;;
23754;SDS011;12057;52.042;6.830;2023-04-06T00:53:41;36.13;;;10.27;;
23754;SDS011;12057;52.042;6.830;2023-04-06T00:58:42;30.42;;;10.00;;
23754;SDS011;12057;52.042;6.830;2023-04-06T01:03:42;31.98;;;10.20;;
23754;SDS011;12057;52.042;6.830;2023-04-06T01:08:47;22.20;;;9.45;;
23754;SDS011;12057;52.042;6.830;2023-04-06T01:13:48;21.85;;;9.85;;
23754;SDS011;12057;52.042;6.830;2023-04-06T01:18:49;30.92;;;9.57;;
23754;SDS011;12057;52.042;6.830;2023-04-06T01:28:51;26.57;;;9.73;;
23754;SDS011;12057;52.042;6.830;2023-04-06T01:33:52;29.42;;;10.68;;
23754;SDS011;12057;52.042;6.830;2023-04-06T01:43:54;26.52;;;9.45;;
23754;SDS011;12057;52.042;6.830;2023-04-06T01:48:55;25.52;;;10.55;;
23754;SDS011;12057;52.042;6.830;2023-04-06T01:53:56;24.30;;;10.77;;
23754;SDS011;12057;52.042;6.830;2023-04-06T01:58:56;30.92;;;10.73;;
23754;SDS011;12057;52.042;6.830;2023-04-06T02:03:57;28.42;;;11.07;;
23754;SDS011;12057;52.042;6.830;2023-04-06T02:08:58;23.30;;;10.10;;
23754;SDS011;12057;52.042;6.830;2023-04-06T02:13:59;28.35;;;10.23;;
23754;SDS011;12057;52.042;6.830;2023-04-06T02:19:01;26.15;;;10.80;;
23754;SDS011;12057;52.042;6.830;2023-04-06T02:24:01;39.67;;;11.57;;
23754;SDS011;12057;52.042;6.830;2023-04-06T02:29:02;25.77;;;11.10;;
23754;SDS011;12057;52.042;6.830;2023-04-06T02:34:03;27.20;;;11.32;;
23754;SDS011;12057;52.042;6.830;2023-04-06T02:39:04;33.28;;;10.90;;
23754;SDS011;12057;52.042;6.830;2023-04-06T02:44:08;30.60;;;11.50;;
23754;SDS011;12057;52.042;6.830;2023-04-06T02:49:09;32.03;;;10.27;;
23754;SDS011;12057;52.042;6.830;2023-04-06T02:54:10;41.53;;;11.50;;
23754;SDS011;12057;52.042;6.830;2023-04-06T02:59:11;32.15;;;10.85;;
23754;SDS011;12057;52.042;6.830;2023-04-06T03:04:12;32.45;;;11.18;;
23754;SDS011;12057;52.042;6.830;2023-04-06T03:09:12;31.92;;;10.98;;
23754;SDS011;12057;52.042;6.830;2023-04-06T03:14:14;38.22;;;13.07;;
23754;SDS011;12057;52.042;6.830;2023-04-06T03:19:23;30.13;;;10.07;;
23754;SDS011;12057;52.042;6.830;2023-04-06T03:24:24;30.33;;;11.60;;
23754;SDS011;12057;52.042;6.830;2023-04-06T03:29:25;38.17;;;12.55;;
23754;SDS011;12057;52.042;6.830;2023-04-06T03:34:27;44.47;;;14.45;;
23754;SDS011;12057;52.042;6.830;2023-04-06T03:39:28;30.15;;;10.77;;
23754;SDS011;12057;52.042;6.830;2023-04-06T03:44:28;39.05;;;11.60;;
23754;SDS011;12057;52.042;6.830;2023-04-06T03:54:30;20.93;;;10.47;;
23754;SDS011;12057;52.042;6.830;2023-04-06T03:59:34;27.13;;;11.23;;
23754;SDS011;12057;52.042;6.830;2023-04-06T04:04:35;29.13;;;11.88;;
23754;SDS011;12057;52.042;6.830;2023-04-06T04:09:36;53.78;;;15.68;;
23754;SDS011;12057;52.042;6.830;2023-04-06T04:14:37;26.00;;;11.20;;
23754;SDS011;12057;52.042;6.830;2023-04-06T04:19:38;34.97;;;10.95;;
23754;SDS011;12057;52.042;6.830;2023-04-06T04:24:38;38.58;;;11.48;;
23754;SDS011;12057;52.042;6.830;2023-04-06T04:29:39;25.80;;;10.93;;
23754;SDS011;12057;52.042;6.830;2023-04-06T04:34:40;25.13;;;10.60;;
23754;SDS011;12057;52.042;6.830;2023-04-06T04:39:41;31.85;;;11.68;;
23754;SDS011;12057;52.042;6.830;2023-04-06T04:44:42;32.00;;;11.90;;
23754;SDS011;12057;52.042;6.830;2023-04-06T04:49:42;42.00;;;11.88;;
23754;SDS011;12057;52.042;6.830;2023-04-06T04:54:43;29.20;;;12.10;;
23754;SDS011;12057;52.042;6.830;2023-04-06T04:59:44;30.80;;;12.05;;
23754;SDS011;12057;52.042;6.830;2023-04-06T05:04:45;33.45;;;12.13;;
23754;SDS011;12057;52.042;6.830;2023-04-06T05:09:46;28.08;;;12.52;;
23754;SDS011;12057;52.042;6.830;2023-04-06T05:14:47;33.55;;;11.48;;
23754;SDS011;12057;52.042;6.830;2023-04-06T05:19:48;35.38;;;12.43;;
23754;SDS011;12057;52.042;6.830;2023-04-06T05:24:49;28.38;;;11.68;;
23754;SDS011;12057;52.042;6.830;2023-04-06T05:34:50;33.17;;;12.13;;
23754;SDS011;12057;52.042;6.830;2023-04-06T05:39:51;36.17;;;12.95;;
23754;SDS011;12057;52.042;6.830;2023-04-06T05:44:52;53.83;;;13.55;;
23754;SDS011;12057;52.042;6.830;2023-04-06T05:49:53;43.42;;;13.38;;
23754;SDS011;12057;52.042;6.830;2023-04-06T05:54:54;41.97;;;14.07;;
23754;SDS011;12057;52.042;6.830;2023-04-06T05:59:55;38.47;;;13.50;;
23754;SDS011;12057;52.042;6.830;2023-04-06T06:04:55;34.03;;;14.35;;
23754;SDS011;12057;52.042;6.830;2023-04-06T06:09:57;40.78;;;13.30;;
23754;SDS011;12057;52.042;6.830;2023-04-06T06:14:58;36.15;;;15.50;;
23754;SDS011;12057;52.042;6.830;2023-04-06T06:19:59;35.55;;;14.00;;
23754;SDS011;12057;52.042;6.830;2023-04-06T06:25:00;47.05;;;14.40;;
23754;SDS011;12057;52.042;6.830;2023-04-06T06:30:01;54.90;;;18.15;;
23754;SDS011;12057;52.042;6.830;2023-04-06T06:35:02;36.80;;;15.30;;
23754;SDS011;12057;52.042;6.830;2023-04-06T06:40:03;40.63;;;16.90;;
23754;SDS011;12057;52.042;6.830;2023-04-06T06:45:06;56.55;;;16.05;;
23754;SDS011;12057;52.042;6.830;2023-04-06T06:50:08;44.25;;;16.15;;
23754;SDS011;12057;52.042;6.830;2023-04-06T06:55:09;35.25;;;15.38;;
23754;SDS011;12057;52.042;6.830;2023-04-06T07:00:11;55.30;;;16.30;;
23754;SDS011;12057;52.042;6.830;2023-04-06T07:05:13;40.33;;;14.98;;
23754;SDS011;12057;52.042;6.830;2023-04-06T07:15:16;29.57;;;12.47;;
23754;SDS011;12057;52.042;6.830;2023-04-06T07:25:17;37.60;;;12.67;;
23754;SDS011;12057;52.042;6.830;2023-04-06T07:30:18;33.27;;;11.73;;
23754;SDS011;12057;52.042;6.830;2023-04-06T07:35:19;33.42;;;13.40;;
23754;SDS011;12057;52.042;6.830;2023-04-06T07:40:20;38.78;;;11.65;;
23754;SDS011;12057;52.042;6.830;2023-04-06T07:45:21;30.57;;;13.20;;
23754;SDS011;12057;52.042;6.830;2023-04-06T07:50:22;43.17;;;12.37;;
23754;SDS011;12057;52.042;6.830;2023-04-06T07:55:23;42.37;;;12.53;;
23754;SDS011;12057;52.042;6.830;2023-04-06T08:00:23;30.93;;;11.97;;
23754;SDS011;12057;52.042;6.830;2023-04-06T08:05:24;28.85;;;12.68;;
23754;SDS011;12057;52.042;6.830;2023-04-06T08:10:26;37.05;;;13.75;;
23754;SDS011;12057;52.042;6.830;2023-04-06T08:15:26;33.27;;;12.33;;
23754;SDS011;12057;52.042;6.830;2023-04-06T08:20:27;32.50;;;12.57;;
23754;SDS011;12057;52.042;6.830;2023-04-06T08:25:28;46.63;;;13.07;;
23754;SDS011;12057;52.042;6.830;2023-04-06T08:30:29;34.65;;;12.40;;
23754;SDS011;12057;52.042;6.830;2023-04-06T08:35:30;32.72;;;14.00;;
23754;SDS011;12057;52.042;6.830;2023-04-06T08:40:38;29.70;;;12.03;;
23754;SDS011;12057;52.042;6.830;2023-04-06T08:45:40;32.60;;;13.60;;
23754;SDS011;12057;52.042;6.830;2023-04-06T08:50:42;28.48;;;12.38;;
23754;SDS011;12057;52.042;6.830;2023-04-06T08:55:44;32.95;;;13.43;;
23754;SDS011;12057;52.042;6.830;2023-04-06T09:00:45;34.40;;;13.37;;
23754;SDS011;12057;52.042;6.830;2023-04-06T09:05:45;37.33;;;13.40;;
23754;SDS011;12057;52.042;6.830;2023-04-06T09:10:47;31.05;;;13.38;;
23754;SDS011;12057;52.042;6.830;2023-04-06T09:21:03;28.08;;;12.07;;
23754;SDS011;12057;52.042;6.830;2023-04-06T09:31:07;41.83;;;14.75;;
23754;SDS011;12057;52.042;6.830;2023-04-06T09:36:10;37.17;;;14.88;;
23754;SDS011;12057;52.042;6.830;2023-04-06T09:41:11;49.53;;;15.90;;
23754;SDS011;12057;52.042;6.830;2023-04-06T09:46:26;37.30;;;13.73;;
23754;SDS011;12057;52.042;6.830;2023-04-06T09:51:31;30.98;;;13.10;;
23754;SDS011;12057;52.042;6.830;2023-04-06T09:56:52;43.88;;;15.20;;
23754;SDS011;12057;52.042;6.830;2023-04-06T10:02:05;33.63;;;15.25;;
23754;SDS011;12057;52.042;6.830;2023-04-06T10:07:09;38.95;;;12.75;;
23754;SDS011;12057;52.042;6.830;2023-04-06T10:12:11;27.80;;;12.23;;
23754;SDS011;12057;52.042;6.830;2023-04-06T10:17:13;34.58;;;12.82;;
23754;SDS011;12057;52.042;6.830;2023-04-06T10:22:15;36.57;;;13.20;;
23754;SDS011;12057;52.042;6.830;2023-04-06T10:27:29;38.13;;;13.13;;
23754;SDS011;12057;52.042;6.830;2023-04-06T10:32:40;34.75;;;13.13;;
23754;SDS011;12057;52.042;6.830;2023-04-06T10:37:49;36.08;;;13.85;;
23754;SDS011;12057;52.042;6.830;2023-04-06T10:42:54;29.23;;;13.13;;
23754;SDS011;12057;52.042;6.830;2023-04-06T10:47:55;33.22;;;13.80;;
23754;SDS011;12057;52.042;6.830;2023-04-06T10:53:00;33.67;;;13.40;;
23754;SDS011;12057;52.042;6.830;2023-04-06T10:58:01;35.88;;;13.70;;
23754;SDS011;12057;52.042;6.830;2023-04-06T11:03:05;31.98;;;14.02;;
23754;SDS011;12057;52.042;6.830;2023-04-06T11:08:06;36.63;;;16.27;;
23754;SDS011;12057;52.042;6.830;2023-04-06T11:13:07;35.43;;;13.70;;
23754;SDS011;12057;52.042;6.830;2023-04-06T11:18:08;40.43;;;14.83;;
23754;SDS011;12057;52.042;6.830;2023-04-06T11:23:09;38.13;;;15.82;;
23754;SDS011;12057;52.042;6.830;2023-04-06T11:28:10;39.40;;;15.40;;
23754;SDS011;12057;52.042;6.830;2023-04-06T11:33:19;30.35;;;13.75;;
23754;SDS011;12057;52.042;6.830;2023-04-06T11:38:22;32.03;;;14.27;;
23754;SDS011;12057;52.042;6.830;2023-04-06T11:43:27;48.00;;;15.30;;
23754;SDS011;12057;52.042;6.830;2023-04-06T11:48:29;36.90;;;14.57;;
23754;SDS011;12057;52.042;6.830;2023-04-06T11:58:33;40.50;;;16.65;;
23754;SDS011;12057;52.042;6.830;2023-04-06T12:03:34;35.87;;;14.70;;
23754;SDS011;12057;52.042;6.830;2023-04-06T12:08:34;46.20;;;14.53;;
23754;SDS011;12057;52.042;6.830;2023-04-06T12:13:35;44.27;;;17.13;;
23754;SDS011;12057;52.042;6.830;2023-04-06T12:18:36;35.80;;;15.53;;
23754;SDS011;12057;52.042;6.830;2023-04-06T12:23:37;35.97;;;16.03;;
23754;SDS011;12057;52.042;6.830;2023-04-06T12:28:38;40.93;;;16.40;;
23754;SDS011;12057;52.042;6.830;2023-04-06T12:33:39;41.93;;;16.03;;
23754;SDS011;12057;52.042;6.830;2023-04-06T12:38:40;43.60;;;16.00;;
23754;SDS011;12057;52.042;6.830;2023-04-06T12:43:41;41.67;;;15.40;;
23754;SDS011;12057;52.042;6.830;2023-04-06T12:48:43;44.15;;;15.35;;
23754;SDS011;12057;52.042;6.830;2023-04-06T12:53:44;38.40;;;14.23;;
23754;SDS011;12057;52.042;6.830;2023-04-06T12:58:45;37.30;;;14.00;;
23754;SDS011;12057;52.042;6.830;2023-04-06T13:03:46;36.43;;;12.47;;
23754;SDS011;12057;52.042;6.830;2023-04-06T13:08:47;44.53;;;15.40;;
23754;SDS011;12057;52.042;6.830;2023-04-06T13:13:50;42.15;;;15.23;;
23754;SDS011;12057;52.042;6.830;2023-04-06T13:18:50;35.13;;;11.33;;
23754;SDS011;12057;52.042;6.830;2023-04-06T13:23:51;28.07;;;10.93;;
23754;SDS011;12057;52.042;6.830;2023-04-06T13:28:52;33.73;;;12.47;;
23754;SDS011;12057;52.042;6.830;2023-04-06T13:33:53;25.20;;;9.70;;
23754;SDS011;12057;52.042;6.830;2023-04-06T13:38:54;25.77;;;11.10;;
23754;SDS011;12057;52.042;6.830;2023-04-06T13:43:55;42.50;;;11.93;;
23754;SDS011;12057;52.042;6.830;2023-04-06T13:48:57;32.35;;;12.35;;
23754;SDS011;12057;52.042;6.830;2023-04-06T13:53:58;37.27;;;11.47;;
23754;SDS011;12057;52.042;6.830;2023-04-06T13:58:59;30.80;;;12.47;;
23754;SDS011;12057;52.042;6.830;2023-04-06T14:04:02;25.33;;;11.27;;
23754;SDS011;12057;52.042;6.830;2023-04-06T14:09:03;25.70;;;11.63;;
23754;SDS011;12057;52.042;6.830;2023-04-06T14:14:04;25.97;;;9.73;;
23754;SDS011;12057;52.042;6.830;2023-04-06T14:19:05;24.38;;;10.60;;
23754;SDS011;12057;52.042;6.830;2023-04-06T14:24:06;28.83;;;11.17;;
23754;SDS011;12057;52.042;6.830;2023-04-06T14:29:08;28.25;;;11.30;;
23754;SDS011;12057;52.042;6.830;2023-04-06T14:34:09;30.77;;;10.38;;
23754;SDS011;12057;52.042;6.830;2023-04-06T14:39:10;27.37;;;11.17;;
23754;SDS011;12057;52.042;6.830;2023-04-06T14:44:11;29.77;;;10.13;;
23754;SDS011;12057;52.042;6.830;2023-04-06T14:54:13;23.40;;;9.63;;
23754;SDS011;12057;52.042;6.830;2023-04-06T14:59:14;22.53;;;8.13;;
23754;SDS011;12057;52.042;6.830;2023-04-06T15:04:15;19.87;;;9.23;;
23754;SDS011;12057;52.042;6.830;2023-04-06T15:09:16;18.90;;;8.40;;
23754;SDS011;12057;52.042;6.830;2023-04-06T15:14:17;24.33;;;10.13;;
23754;SDS011;12057;52.042;6.830;2023-04-06T15:19:17;18.23;;;7.87;;
23754;SDS011;12057;52.042;6.830;2023-04-06T15:24:18;24.73;;;7.70;;
23754;SDS011;12057;52.042;6.830;2023-04-06T15:29:19;14.30;;;6.57;;
23754;SDS011;12057;52.042;6.830;2023-04-06T15:34:20;15.40;;;6.33;;
23754;SDS011;12057;52.042;6.830;2023-04-06T15:39:21;17.07;;;6.53;;
23754;SDS011;12057;52.042;6.830;2023-04-06T15:44:22;19.30;;;7.33;;
23754;SDS011;12057;52.042;6.830;2023-04-06T15:49:23;16.57;;;7.20;;
23754;SDS011;12057;52.042;6.830;2023-04-06T15:54:23;16.23;;;7.20;;
23754;SDS011;12057;52.042;6.830;2023-04-06T15:59:24;17.57;;;7.27;;
23754;SDS011;12057;52.042;6.830;2023-04-06T16:04:25;18.60;;;8.47;;
23754;SDS011;12057;52.042;6.830;2023-04-06T16:09:26;19.85;;;7.55;;
23754;SDS011;12057;52.042;6.830;2023-04-06T16:14:27;24.37;;;9.60;;
23754;SDS011;12057;52.042;6.830;2023-04-06T16:19:28;20.17;;;9.00;;
23754;SDS011;12057;52.042;6.830;2023-04-06T16:24:29;22.30;;;9.95;;
23754;SDS011;12057;52.042;6.830;2023-04-06T16:29:30;22.80;;;8.83;;
23754;SDS011;12057;52.042;6.830;2023-04-06T16:34:34;28.75;;;9.05;;
23754;SDS011;12057;52.042;6.830;2023-04-06T16:39:35;29.70;;;10.43;;
23754;SDS011;12057;52.042;6.830;2023-04-06T16:44:36;23.83;;;10.17;;
23754;SDS011;12057;52.042;6.830;2023-04-06T16:49:37;25.53;;;10.47;;
23754;SDS011;12057;52.042;6.830;2023-04-06T16:54:38;26.23;;;11.60;;
23754;SDS011;12057;52.042;6.830;2023-04-06T16:59:38;26.50;;;11.37;;
23754;SDS011;12057;52.042;6.830;2023-04-06T17:04:39;28.73;;;9.90;;
23754;SDS011;12057;52.042;6.830;2023-04-06T17:09:40;26.90;;;11.73;;
23754;SDS011;12057;52.042;6.830;2023-04-06T17:14:41;34.20;;;10.40;;
23754;SDS011;12057;52.042;6.830;2023-04-06T17:19:42;29.65;;;11.00;;
23754;SDS011;12057;52.042;6.830;2023-04-06T17:24:43;24.77;;;11.50;;
23754;SDS011;12057;52.042;6.830;2023-04-06T17:29:43;30.80;;;12.17;;
23754;SDS011;12057;52.042;6.830;2023-04-06T17:34:44;22.17;;;9.70;;
23754;SDS011;12057;52.042;6.830;2023-04-06T17:39:45;24.37;;;9.17;;
23754;SDS011;12057;52.042;6.830;2023-04-06T17:44:46;27.13;;;10.37;;
23754;SDS011;12057;52.042;6.830;2023-04-06T17:49:48;28.65;;;10.23;;
23754;SDS011;12057;52.042;6.830;2023-04-06T17:54:48;20.93;;;9.47;;
23754;SDS011;12057;52.042;6.830;2023-04-06T17:59:51;24.75;;;11.73;;
23754;SDS011;12057;52.042;6.830;2023-04-06T18:04:53;25.10;;;11.40;;
23754;SDS011;12057;52.042;6.830;2023-04-06T18:09:54;21.90;;;9.65;;
23754;SDS011;12057;52.042;6.830;2023-04-06T18:14:55;22.43;;;9.83;;
23754;SDS011;12057;52.042;6.830;2023-04-06T18:19:55;22.77;;;9.60;;
23754;SDS011;12057;52.042;6.830;2023-04-06T18:24:56;26.07;;;10.60;;
23754;SDS011;12057;52.042;6.830;2023-04-06T18:29:59;21.02;;;9.90;;
23754;SDS011;12057;52.042;6.830;2023-04-06T18:35:00;23.53;;;10.13;;
23754;SDS011;12057;52.042;6.830;2023-04-06T18:40:01;21.67;;;9.47;;
23754;SDS011;12057;52.042;6.830;2023-04-06T18:45:03;24.95;;;8.75;;
23754;SDS011;12057;52.042;6.830;2023-04-06T18:50:04;23.23;;;8.43;;
23754;SDS011;12057;52.042;6.830;2023-04-06T18:55:05;16.60;;;8.45;;
23754;SDS011;12057;52.042;6.830;2023-04-06T19:00:07;19.00;;;8.95;;
23754;SDS011;12057;52.042;6.830;2023-04-06T19:05:11;17.33;;;7.85;;
23754;SDS011;12057;52.042;6.830;2023-04-06T19:10:12;18.95;;;8.90;;
23754;SDS011;12057;52.042;6.830;2023-04-06T19:15:13;14.63;;;7.63;;
23754;SDS011;12057;52.042;6.830;2023-04-06T19:20:14;15.07;;;6.77;;
23754;SDS011;12057;52.042;6.830;2023-04-06T19:25:15;16.13;;;7.77;;
23754;SDS011;12057;52.042;6.830;2023-04-06T19:30:17;12.80;;;6.45;;
23754;SDS011;12057;52.042;6.830;2023-04-06T19:35:19;13.38;;;7.05;;
23754;SDS011;12057;52.042;6.830;2023-04-06T19:40:20;18.80;;;8.70;;
23754;SDS011;12057;52.042;6.830;2023-04-06T19:45:20;16.03;;;7.83;;
23754;SDS011;12057;52.042;6.830;2023-04-06T19:50:21;19.63;;;8.87;;
23754;SDS011;12057;52.042;6.830;2023-04-06T19:55:22;25.63;;;8.77;;
23754;SDS011;12057;52.042;6.830;2023-04-06T20:00:23;15.60;;;7.10;;
23754;SDS011;12057;52.042;6.830;2023-04-06T20:05:24;15.17;;;8.00;;
23754;SDS011;12057;52.042;6.830;2023-04-06T20:10:24;14.93;;;7.57;;
23754;SDS011;12057;52.042;6.830;2023-04-06T20:15:25;17.20;;;8.97;;
23754;SDS011;12057;52.042;6.830;2023-04-06T20:20:26;25.05;;;8.73;;
23754;SDS011;12057;52.042;6.830;2023-04-06T20:25:27;23.23;;;10.18;;
23754;SDS011;12057;52.042;6.830;2023-04-06T20:30:28;27.33;;;13.20;;
23754;SDS011;12057;52.042;6.830;2023-04-06T20:35:29;30.47;;;12.07;;
23754;SDS011;12057;52.042;6.830;2023-04-06T20:40:30;25.25;;;11.52;;
23754;SDS011;12057;52.042;6.830;2023-04-06T20:45:34;23.37;;;11.40;;
23754;SDS011;12057;52.042;6.830;2023-04-06T20:50:37;22.58;;;11.10;;
23754;SDS011;12057;52.042;6.830;2023-04-06T20:55:41;25.27;;;12.47;;
23754;SDS011;12057;52.042;6.830;2023-04-06T21:00:42;24.13;;;12.57;;
23754;SDS011;12057;52.042;6.830;2023-04-06T21:05:53;24.23;;;11.60;;
23754;SDS011;12057;52.042;6.830;2023-04-06T21:10:56;24.05;;;12.13;;
23754;SDS011;12057;52.042;6.830;2023-04-06T21:15:57;24.77;;;11.87;;
23754;SDS011;12057;52.042;6.830;2023-04-06T21:20:57;26.73;;;12.60;;
23754;SDS011;12057;52.042;6.830;2023-04-06T21:25:58;25.53;;;12.63;;
23754;SDS011;12057;52.042;6.830;2023-04-06T21:31:04;27.48;;;12.38;;
23754;SDS011;12057;52.042;6.830;2023-04-06T21:36:06;24.20;;;12.60;;
23754;SDS011;12057;52.042;6.830;2023-04-06T21:46:18;27.17;;;12.53;;
23754;SDS011;12057;52.042;6.830;2023-04-06T21:51:19;23.33;;;11.35;;
23754;SDS011;12057;52.042;6.830;2023-04-06T21:56:22;24.20;;;11.68;;
23754;SDS011;12057;52.042;6.830;2023-04-06T22:01:24;21.35;;;11.80;;
23754;SDS011;12057;52.042;6.830;2023-04-06T22:06:27;22.13;;;12.00;;
23754;SDS011;12057;52.042;6.830;2023-04-06T22:11:29;29.00;;;12.85;;
23754;SDS011;12057;52.042;6.830;2023-04-06T22:16:29;24.23;;;12.67;;
23754;SDS011;12057;52.042;6.830;2023-04-06T22:21:31;24.15;;;10.95;;
23754;SDS011;12057;52.042;6.830;2023-04-06T22:26:32;28.43;;;12.77;;
23754;SDS011;12057;52.042;6.830;2023-04-06T22:31:33;26.77;;;13.00;;
23754;SDS011;12057;52.042;6.830;2023-04-06T22:36:33;26.17;;;13.47;;
23754;SDS011;12057;52.042;6.830;2023-04-06T22:41:34;34.63;;;13.40;;
23754;SDS011;12057;52.042;6.830;2023-04-06T22:46:35;27.07;;;13.17;;
23754;SDS011;12057;52.042;6.830;2023-04-06T22:51:36;25.30;;;12.23;;
23754;SDS011;12057;52.042;6.830;2023-04-06T22:56:36;24.50;;;12.83;;
23754;SDS011;12057;52.042;6.830;2023-04-06T23:01:37;27.07;;;13.03;;
23754;SDS011;12057;52.042;6.830;2023-04-06T23:06:38;29.67;;;13.47;;
23754;SDS011;12057;52.042;6.830;2023-04-06T23:11:39;27.43;;;12.80;;
23754;SDS011;12057;52.042;6.830;2023-04-06T23:16:39;31.40;;;14.30;;
23754;SDS011;12057;52.042;6.830;2023-04-06T23:21:40;29.23;;;13.73;;
23754;SDS011;12057;52.042;6.830;2023-04-06T23:26:41;29.43;;;14.37;;
23754;SDS011;12057;52.042;6.830;2023-04-06T23:31:42;28.33;;;13.97;;
23754;SDS011;12057;52.042;6.830;2023-04-06T23:36:42;27.33;;;13.37;;
23754;SDS011;12057;52.042;6.830;2023-04-06T23:41:43;28.13;;;13.60;;
23754;SDS011;12057;52.042;6.830;2023-04-06T23:46:44;28.03;;;14.17;;
23754;SDS011;12057;52.042;6.830;2023-04-06T23:51:45;24.92;;;13.93;;
23754;SDS011;12057;52.042;6.830;2023-04-06T23:56:46;25.80;;;12.80;;
